Time;durP1;ratioP1;P1;durP2;ratioP2;P2;SDS_P1;SDS_P2;PMS_P1;PMS_P2;Temp;Humidity;BMP_temperature;BMP_pressure;BME280_temperature;BME280_humidity;BME280_pressure;Samples;Min_cycle;Max_cycle;Signal;HPM_P1;HPM_P2
2022/06/04 00:00:15;;;;;;;3.77;1.60;;;25.20;59.10;;;;;;5137076;27;20432;-79
2022/06/04 00:02:44;;;;;;;1.80;1.70;;;25.20;59.10;;;;;;5137103;27;20894;-79
2022/06/04 00:05:13;;;;;;;1.60;1.50;;;25.10;59.00;;;;;;5137027;27;20440;-81
2022/06/04 00:07:40;;;;;;;2.30;1.40;;;25.10;59.00;;;;;;5137119;27;20521;-80
2022/06/04 00:15:40;;;;;;;1.43;1.33;;;25.10;59.00;;;;;;5137000;27;20405;-80
2022/06/04 00:18:08;;;;;;;1.83;1.50;;;25.10;59.10;;;;;;5136864;27;20529;-80
2022/06/04 00:20:35;;;;;;;1.47;1.37;;;25.10;59.00;;;;;;5136702;27;20572;-80
2022/06/04 00:23:04;;;;;;;1.80;1.63;;;25.10;59.10;;;;;;5136752;27;20440;-80
2022/06/04 00:25:33;;;;;;;1.67;1.30;;;25.10;59.10;;;;;;5136689;27;20550;-80
2022/06/04 00:28:00;;;;;;;2.80;1.70;;;25.10;59.10;;;;;;5136671;27;20438;-80
2022/06/04 00:30:27;;;;;;;2.03;1.47;;;25.10;59.10;;;;;;5136517;27;20440;-79
2022/06/04 00:32:54;;;;;;;1.97;1.87;;;25.10;59.10;;;;;;5136640;27;20463;-87
2022/06/04 00:35:23;;;;;;;1.50;1.40;;;25.10;59.10;;;;;;5136400;27;20485;-79
2022/06/04 00:37:50;;;;;;;1.70;1.60;;;25.10;59.10;;;;;;5135728;27;20458;-80
2022/06/04 00:40:26;;;;;;;1.20;1.10;;;25.10;59.10;;;;;;5136370;27;21012;-80
2022/06/04 00:42:55;;;;;;;2.33;1.57;;;25.10;59.10;;;;;;5136407;27;20433;-79
2022/06/04 00:45:58;;;;;;;1.63;1.53;;;25.10;59.10;;;;;;5136713;27;20445;-79
2022/06/04 00:48:25;;;;;;;1.87;1.60;;;25.20;59.10;;;;;;5136497;27;20909;-79
2022/06/04 00:50:53;;;;;;;2.00;1.70;;;25.10;59.10;;;;;;5136345;27;20441;-79
2022/06/04 00:53:20;;;;;;;1.67;1.50;;;25.10;59.20;;;;;;5136427;27;20446;-80
2022/06/04 00:55:55;;;;;;;2.03;1.37;;;25.10;59.10;;;;;;5136130;27;20438;-80
2022/06/04 00:58:35;;;;;;;1.67;1.57;;;25.10;59.10;;;;;;5136232;27;20832;-80
2022/06/04 01:01:13;;;;;;;1.50;1.40;;;25.20;59.20;;;;;;5135987;27;20474;-80
2022/06/04 01:03:50;;;;;;;1.80;1.70;;;25.10;59.20;;;;;;5136190;27;20458;-80
2022/06/04 01:06:30;;;;;;;1.70;1.40;;;25.10;59.20;;;;;;5135978;27;20452;-81
2022/06/04 01:09:15;;;;;;;1.70;1.60;;;25.20;59.20;;;;;;5136093;27;20438;-80
2022/06/04 01:14:38;;;;;;;1.40;1.30;;;25.10;59.20;;;;;;5135984;27;20779;-80
2022/06/04 01:17:16;;;;;;;1.97;1.70;;;25.10;59.30;;;;;;5135960;27;20792;-80
2022/06/04 01:19:55;;;;;;;1.67;1.57;;;25.10;59.20;;;;;;5135913;27;20438;-80
2022/06/04 01:22:46;;;;;;;1.63;1.30;;;25.10;59.20;;;;;;5135560;27;20572;-80
2022/06/04 01:25:28;;;;;;;1.43;1.33;;;25.10;59.20;;;;;;5135584;27;20446;-80
2022/06/04 01:28:01;;;;;;;1.50;1.40;;;25.10;59.30;;;;;;5135604;27;20436;-80
2022/06/04 01:30:34;;;;;;;1.30;1.20;;;25.10;59.30;;;;;;5135692;27;20520;-80
2022/06/04 01:33:07;;;;;;;1.70;1.20;;;25.10;59.30;;;;;;5135441;27;20462;-80
2022/06/04 01:35:40;;;;;;;1.50;1.30;;;25.10;59.30;;;;;;5135403;27;20442;-80
2022/06/04 01:38:13;;;;;;;1.50;1.40;;;25.10;59.40;;;;;;5135327;27;20528;-80
2022/06/04 01:43:30;;;;;;;2.50;1.30;;;25.10;59.30;;;;;;5131600;27;20948;-80
2022/06/04 01:46:02;;;;;;;1.60;1.50;;;25.10;59.90;;;;;;5135355;27;20445;-80
2022/06/04 01:48:32;;;;;;;1.30;1.20;;;25.10;59.30;;;;;;5135197;27;20449;-80
2022/06/04 01:51:03;;;;;;;2.43;1.50;;;25.10;59.30;;;;;;5135384;27;20437;-80
2022/06/04 01:53:34;;;;;;;1.50;1.40;;;25.10;59.30;;;;;;5135299;27;20438;-80
2022/06/04 01:56:04;;;;;;;1.70;1.43;;;25.10;59.30;;;;;;5135328;27;20442;-80
2022/06/04 01:58:36;;;;;;;2.07;1.33;;;25.10;59.30;;;;;;5135593;27;20440;-80
2022/06/04 02:01:07;;;;;;;1.40;1.30;;;25.10;59.30;;;;;;5134999;27;20513;-80
2022/06/04 02:03:39;;;;;;;1.40;1.30;;;25.10;59.30;;;;;;5134814;27;20494;-80
2022/06/04 02:06:09;;;;;;;2.60;1.40;;;25.10;59.30;;;;;;5134803;27;20444;-79
2022/06/04 02:08:40;;;;;;;1.70;1.33;;;25.10;59.30;;;;;;5134740;27;20474;-80
2022/06/04 02:11:13;;;;;;;2.00;1.30;;;25.10;59.30;;;;;;5134830;27;20536;-80
2022/06/04 02:13:43;;;;;;;1.47;1.37;;;25.10;59.30;;;;;;5134768;27;20471;-80
2022/06/04 02:16:15;;;;;;;1.40;1.20;;;25.10;59.30;;;;;;5134724;27;20438;-80
2022/06/04 02:18:42;;;;;;;1.20;1.10;;;25.10;59.30;;;;;;5134715;27;20947;-80
2022/06/04 02:21:09;;;;;;;1.70;1.10;;;25.10;59.30;;;;;;5134874;27;20477;-80
2022/06/04 02:23:36;;;;;;;2.27;1.40;;;25.10;59.30;;;;;;5134634;27;20541;-80
2022/06/04 02:26:03;;;;;;;2.07;1.67;;;25.00;59.20;;;;;;5134489;27;20932;-79
2022/06/04 02:28:30;;;;;;;1.97;1.17;;;25.10;59.30;;;;;;5134630;27;20796;-80
2022/06/04 02:31:07;;;;;;;1.10;1.00;;;25.00;59.20;;;;;;5134578;27;20442;-80
2022/06/04 02:33:42;;;;;;;1.60;1.50;;;25.10;59.30;;;;;;5134480;27;20868;-79
2022/06/04 02:36:17;;;;;;;1.77;1.67;;;25.10;59.40;;;;;;5134394;27;20912;-79
2022/06/04 02:38:48;;;;;;;1.60;1.50;;;25.00;59.50;;;;;;5134574;27;20457;-79
2022/06/04 02:41:23;;;;;;;1.73;1.63;;;25.00;59.50;;;;;;5134275;27;20474;-78
2022/06/04 02:43:53;;;;;;;1.63;1.40;;;25.00;59.50;;;;;;5133877;27;20528;-79
2022/06/04 02:46:27;;;;;;;1.40;1.27;;;25.00;59.50;;;;;;5134299;27;20480;-79
2022/06/04 02:49:00;;;;;;;1.40;1.30;;;25.00;59.50;;;;;;5133536;27;20462;-80
2022/06/04 02:51:33;;;;;;;2.27;1.40;;;25.00;59.50;;;;;;5133640;27;20513;-79
2022/06/04 02:54:03;;;;;;;1.50;1.40;;;25.00;59.60;;;;;;5134312;27;20441;-86
2022/06/04 02:56:33;;;;;;;1.80;1.37;;;25.00;59.60;;;;;;5134210;27;20487;-86
2022/06/04 02:59:04;;;;;;;1.50;1.20;;;25.00;59.50;;;;;;5134156;27;20519;-86
2022/06/04 03:01:34;;;;;;;1.30;1.20;;;25.00;59.50;;;;;;5136226;27;20469;-87
2022/06/04 03:04:03;;;;;;;1.60;1.30;;;25.00;59.50;;;;;;5137937;27;20480;-87
2022/06/04 03:06:32;;;;;;;1.37;1.27;;;25.00;59.50;;;;;;5138128;27;20517;-84
2022/06/04 03:09:01;;;;;;;1.43;1.33;;;25.00;59.50;;;;;;5137923;27;20465;-87
2022/06/04 03:11:28;;;;;;;1.80;1.70;;;25.00;59.50;;;;;;5132589;27;20917;-78
2022/06/04 03:13:55;;;;;;;1.50;1.40;;;25.00;59.60;;;;;;5137756;27;20465;-82
2022/06/04 03:16:22;;;;;;;1.90;1.60;;;25.00;59.50;;;;;;5137732;27;20521;-86
2022/06/04 03:18:50;;;;;;;1.50;1.40;;;25.00;59.50;;;;;;5137706;27;20456;-80
2022/06/04 03:21:17;;;;;;;1.43;1.30;;;25.00;59.50;;;;;;5137524;27;20568;-87
2022/06/04 03:23:44;;;;;;;1.63;1.53;;;25.00;59.50;;;;;;5137848;27;20529;-87
2022/06/04 03:26:10;;;;;;;1.70;1.30;;;25.00;60.10;;;;;;5137576;27;20469;-86
2022/06/04 03:28:37;;;;;;;1.30;1.20;;;25.00;59.50;;;;;;5137373;27;20878;-78
2022/06/04 03:31:04;;;;;;;1.33;1.23;;;25.00;59.50;;;;;;5137645;27;20529;-86
2022/06/04 03:33:31;;;;;;;1.30;1.20;;;25.00;59.50;;;;;;5137349;27;20450;-80
2022/06/04 03:35:59;;;;;;;2.40;1.47;;;25.00;59.50;;;;;;5137289;27;20430;-78
2022/06/04 03:38:26;;;;;;;1.37;1.27;;;25.00;59.50;;;;;;5134038;27;20418;-85
2022/06/04 03:40:54;;;;;;;1.27;1.17;;;25.00;59.50;;;;;;5137064;27;20529;-78
2022/06/04 03:43:21;;;;;;;1.20;1.10;;;25.00;59.50;;;;;;5136614;27;20486;-81
2022/06/04 03:45:48;;;;;;;1.60;1.50;;;25.00;59.50;;;;;;5136905;27;20444;-77
2022/06/04 03:48:15;;;;;;;1.90;1.80;;;25.00;59.50;;;;;;5137168;27;20434;-78
2022/06/04 03:50:42;;;;;;;1.50;1.40;;;25.00;59.50;;;;;;5137085;27;20477;-85
2022/06/04 03:53:10;;;;;;;1.50;1.40;;;25.00;59.50;;;;;;5137266;27;20878;-78
2022/06/04 03:55:37;;;;;;;1.50;1.40;;;25.00;59.40;;;;;;5137002;27;20935;-83
2022/06/04 03:58:04;;;;;;;1.30;1.20;;;25.00;59.50;;;;;;5137164;27;20462;-87
2022/06/04 04:00:34;;;;;;;1.50;1.40;;;25.00;59.50;;;;;;5137601;27;20472;-83
2022/06/04 04:03:04;;;;;;;2.07;1.40;;;25.00;59.50;;;;;;5123285;27;20554;-87
2022/06/04 04:05:33;;;;;;;2.80;1.43;;;25.00;59.50;;;;;;5137378;27;20430;-79
2022/06/04 04:08:01;;;;;;;1.80;1.70;;;25.00;59.50;;;;;;5134287;27;20525;-87
2022/06/04 04:10:31;;;;;;;1.30;1.20;;;25.00;59.50;;;;;;5137152;27;20437;-85
2022/06/04 04:12:59;;;;;;;2.23;1.20;;;25.00;59.40;;;;;;5136826;27;20549;-82
2022/06/04 04:15:26;;;;;;;1.53;1.43;;;25.00;59.40;;;;;;5137014;27;20465;-79
2022/06/04 04:17:54;;;;;;;1.50;1.40;;;25.00;59.40;;;;;;5136859;27;20426;-86
2022/06/04 04:20:24;;;;;;;1.77;1.20;;;25.00;59.40;;;;;;5136848;27;20437;-87
2022/06/04 04:22:52;;;;;;;1.40;1.30;;;25.00;59.40;;;;;;5136590;27;20480;-88
2022/06/04 04:25:23;;;;;;;1.30;1.20;;;25.00;59.40;;;;;;5119961;27;20988;-87
2022/06/04 04:27:52;;;;;;;1.30;1.20;;;25.00;59.50;;;;;;5136958;27;20462;-79
2022/06/04 04:30:22;;;;;;;1.50;1.40;;;25.00;59.50;;;;;;5136938;27;20430;-85
2022/06/04 04:32:49;;;;;;;2.37;1.60;;;24.90;59.40;;;;;;5136866;27;20482;-86
2022/06/04 04:35:19;;;;;;;2.17;1.20;;;25.00;59.40;;;;;;5136535;27;20434;-77
2022/06/04 04:37:46;;;;;;;1.47;1.37;;;25.00;59.40;;;;;;5136669;27;20470;-86
2022/06/04 04:40:15;;;;;;;1.20;1.10;;;25.00;59.40;;;;;;5136472;27;20468;-86
2022/06/04 04:42:42;;;;;;;1.30;1.20;;;25.00;59.40;;;;;;5136322;27;20486;-86
2022/06/04 04:45:12;;;;;;;2.07;1.40;;;25.00;59.40;;;;;;5136356;27;20484;-85
2022/06/04 04:47:41;;;;;;;1.80;1.70;;;25.00;59.50;;;;;;5136394;27;20473;-80
2022/06/04 04:50:13;;;;;;;1.50;1.40;;;25.00;59.40;;;;;;5136230;27;20452;-84
2022/06/04 04:52:41;;;;;;;1.20;1.10;;;24.90;59.40;;;;;;5136225;27;20813;-79
2022/06/04 04:55:08;;;;;;;1.40;1.27;;;24.90;59.40;;;;;;5136237;27;20502;-81
2022/06/04 04:57:35;;;;;;;1.40;1.20;;;25.00;59.50;;;;;;5136332;27;20466;-78
2022/06/04 05:00:02;;;;;;;1.30;1.20;;;24.90;59.40;;;;;;5136301;27;20505;-87
2022/06/04 05:02:31;;;;;;;1.43;1.20;;;24.90;59.40;;;;;;5136099;27;20482;-87
2022/06/04 05:04:58;;;;;;;1.40;1.20;;;24.90;59.40;;;;;;5136060;27;20485;-79
2022/06/04 05:07:25;;;;;;;1.30;1.20;;;24.90;59.40;;;;;;5136157;27;20466;-80
2022/06/04 05:09:52;;;;;;;1.60;1.37;;;24.90;59.50;;;;;;5136061;27;20787;-79
2022/06/04 05:12:18;;;;;;;1.20;1.10;;;24.90;59.50;;;;;;5135846;27;20509;-87
2022/06/04 05:14:45;;;;;;;1.70;1.60;;;24.90;59.40;;;;;;5135993;27;20998;-79
2022/06/04 05:17:13;;;;;;;1.43;1.33;;;24.90;59.50;;;;;;5135874;27;20958;-79
2022/06/04 05:19:41;;;;;;;1.43;1.23;;;24.90;59.50;;;;;;5135929;27;20446;-82
2022/06/04 05:22:08;;;;;;;1.50;1.17;;;24.90;59.40;;;;;;5135067;27;20574;-82
2022/06/04 05:24:37;;;;;;;1.40;1.30;;;24.90;59.50;;;;;;5135676;27;20476;-87
2022/06/04 05:27:05;;;;;;;1.40;1.30;;;24.90;59.50;;;;;;5135814;27;20512;-83
2022/06/04 05:29:33;;;;;;;1.33;1.23;;;24.90;59.50;;;;;;5135640;27;20533;-86
2022/06/04 05:32:00;;;;;;;1.20;1.10;;;24.90;59.50;;;;;;5135457;27;20523;-85
2022/06/04 05:34:27;;;;;;;1.20;1.07;;;24.90;59.50;;;;;;5135664;27;20466;-86
2022/06/04 05:36:56;;;;;;;1.20;1.10;;;24.90;59.50;;;;;;5135833;27;20442;-83
2022/06/04 05:39:24;;;;;;;1.50;1.30;;;24.90;59.50;;;;;;5135450;27;21035;-78
2022/06/04 05:41:51;;;;;;;1.60;1.50;;;24.90;59.50;;;;;;5135283;27;20537;-78
2022/06/04 05:44:19;;;;;;;1.43;1.33;;;24.90;59.50;;;;;;5135555;27;20444;-84
2022/06/04 05:46:46;;;;;;;1.23;1.13;;;24.90;59.50;;;;;;5135282;27;20925;-87
2022/06/04 05:49:14;;;;;;;1.37;1.27;;;24.90;59.50;;;;;;5135205;27;20554;-83
2022/06/04 05:51:43;;;;;;;1.60;1.20;;;24.90;59.50;;;;;;5135165;27;20446;-87
2022/06/04 05:54:12;;;;;;;1.63;1.20;;;24.90;59.50;;;;;;5135266;27;20473;-86
2022/06/04 05:56:43;;;;;;;1.43;1.10;;;24.90;59.50;;;;;;5135113;27;20445;-82
2022/06/04 05:59:11;;;;;;;1.30;1.10;;;24.90;59.50;;;;;;5135192;27;20469;-79
2022/06/04 06:01:39;;;;;;;1.13;1.03;;;24.90;59.50;;;;;;5134846;27;20501;-83
2022/06/04 06:04:08;;;;;;;1.27;1.17;;;24.90;59.50;;;;;;5134784;27;20478;-80
2022/06/04 06:06:36;;;;;;;1.53;1.43;;;24.90;59.50;;;;;;5134760;27;20531;-83
2022/06/04 06:09:06;;;;;;;1.10;1.00;;;24.90;59.50;;;;;;5134811;27;20442;-78
2022/06/04 06:11:34;;;;;;;1.30;1.20;;;24.90;59.50;;;;;;5134774;27;20462;-79
2022/06/04 06:14:01;;;;;;;1.33;1.23;;;24.90;59.50;;;;;;5134558;27;20480;-81
2022/06/04 06:16:30;;;;;;;1.43;1.30;;;24.90;59.50;;;;;;5134752;27;20805;-89
2022/06/04 06:18:58;;;;;;;1.70;1.60;;;24.90;59.50;;;;;;5135034;27;20495;-81
2022/06/04 06:21:29;;;;;;;1.67;1.57;;;24.90;59.50;;;;;;5134687;27;20932;-79
2022/06/04 06:23:57;;;;;;;1.47;1.37;;;24.90;59.70;;;;;;5133988;27;20567;-80
2022/06/04 06:26:26;;;;;;;2.23;1.60;;;24.80;59.70;;;;;;5134576;27;20482;-80
2022/06/04 06:28:55;;;;;;;1.50;1.40;;;24.80;59.90;;;;;;5134586;27;20461;-80
2022/06/04 06:31:23;;;;;;;1.80;1.70;;;24.90;60.30;;;;;;5135043;27;20464;-78
2022/06/04 06:33:51;;;;;;;2.37;1.50;;;24.90;60.40;;;;;;5133692;27;20469;-79
2022/06/04 06:36:19;;;;;;;3.17;1.57;;;24.90;60.30;;;;;;5133347;27;20476;-79
2022/06/04 06:38:47;;;;;;;1.87;1.50;;;24.80;60.00;;;;;;5129876;27;21176;-89
2022/06/04 06:41:15;;;;;;;1.57;1.20;;;24.90;59.90;;;;;;5131026;27;20485;-87
2022/06/04 06:43:46;;;;;;;2.10;1.90;;;24.90;59.80;;;;;;5132421;27;20560;-79
2022/06/04 06:46:17;;;;;;;3.13;2.70;;;24.90;59.90;;;;;;5134248;27;20442;-80
2022/06/04 06:48:45;;;;;;;2.83;1.90;;;24.80;60.10;;;;;;5134091;27;20430;-81
2022/06/04 06:51:14;;;;;;;5.20;2.87;;;24.80;60.50;;;;;;5134487;27;20438;-84
2022/06/04 06:53:42;;;;;;;4.57;2.40;;;24.80;61.20;;;;;;5134354;27;20442;-80
2022/06/04 06:56:10;;;;;;;3.00;2.60;;;24.80;60.60;;;;;;5134275;28;20450;-81
2022/06/04 06:58:37;;;;;;;3.33;2.50;;;24.80;60.60;;;;;;5133447;28;20434;-80
2022/06/04 07:01:04;;;;;;;3.10;2.90;;;24.80;60.70;;;;;;5134268;28;20513;-81
2022/06/04 07:03:32;;;;;;;3.73;2.73;;;24.80;60.90;;;;;;5118819;28;20564;-81
2022/06/04 07:05:59;;;;;;;2.20;2.10;;;24.80;61.10;;;;;;5113418;28;20953;-81
2022/06/04 07:08:27;;;;;;;2.83;2.40;;;24.80;60.90;;;;;;5113657;28;20443;-81
2022/06/04 07:10:54;;;;;;;2.60;2.40;;;24.70;61.00;;;;;;5118475;28;20470;-80
2022/06/04 07:13:21;;;;;;;2.60;2.43;;;24.70;61.10;;;;;;5133909;28;20522;-81
2022/06/04 07:15:49;;;;;;;2.13;1.93;;;24.70;61.00;;;;;;5133985;28;20533;-81
2022/06/04 07:18:16;;;;;;;2.20;2.00;;;24.70;61.20;;;;;;5133875;28;20446;-81
2022/06/04 07:20:45;;;;;;;4.40;2.47;;;24.70;61.20;;;;;;5133955;28;20522;-81
2022/06/04 07:23:12;;;;;;;2.23;2.13;;;24.70;61.40;;;;;;5133978;28;20506;-80
2022/06/04 07:25:41;;;;;;;4.60;1.70;;;24.70;61.30;;;;;;5131505;27;20925;-79
2022/06/04 07:28:09;;;;;;;2.80;1.57;;;24.70;61.10;;;;;;5133618;27;20860;-79
2022/06/04 07:30:37;;;;;;;5.40;1.60;;;24.80;60.90;;;;;;5133819;27;20473;-81
2022/06/04 07:33:04;;;;;;;2.30;1.70;;;24.80;60.70;;;;;;5133700;27;20466;-79
2022/06/04 07:35:31;;;;;;;2.53;2.33;;;24.80;60.60;;;;;;5133927;28;20521;-80
2022/06/04 07:37:59;;;;;;;1.73;1.60;;;24.80;60.50;;;;;;5133915;28;20521;-80
2022/06/04 07:40:27;;;;;;;2.07;1.90;;;24.80;60.60;;;;;;5116623;28;20439;-81
2022/06/04 07:42:55;;;;;;;2.30;1.93;;;24.80;60.50;;;;;;5113394;28;20483;-83
2022/06/04 07:45:22;;;;;;;2.80;1.60;;;24.80;60.40;;;;;;5113835;28;20964;-81
2022/06/04 07:47:49;;;;;;;3.13;1.73;;;24.80;60.40;;;;;;5116865;28;20439;-81
2022/06/04 07:50:16;;;;;;;2.20;1.43;;;24.80;60.40;;;;;;5117093;28;20961;-82
2022/06/04 07:52:43;;;;;;;3.87;1.90;;;24.80;60.40;;;;;;5116954;28;20865;-82
2022/06/04 07:55:12;;;;;;;4.63;1.90;;;24.80;60.60;;;;;;5117280;28;20450;-83
2022/06/04 07:57:40;;;;;;;5.00;2.37;;;24.80;60.60;;;;;;5116847;28;20526;-81
2022/06/04 08:00:09;;;;;;;2.93;2.63;;;24.80;61.00;;;;;;5116895;28;20848;-81
2022/06/04 08:02:36;;;;;;;1.87;1.77;;;24.90;61.10;;;;;;5116662;28;20871;-81
2022/06/04 08:05:03;;;;;;;1.70;1.60;;;24.90;60.90;;;;;;5116736;28;20475;-81
2022/06/04 08:07:30;;;;;;;1.50;1.40;;;24.90;60.40;;;;;;5116755;28;20475;-81
2022/06/04 08:09:57;;;;;;;2.10;1.50;;;24.90;60.00;;;;;;5116991;28;20844;-81
2022/06/04 08:12:29;;;;;;;1.80;1.70;;;25.00;60.00;;;;;;5116448;28;20558;-81
2022/06/04 08:14:57;;;;;;;2.13;1.93;;;25.00;59.90;;;;;;5116434;28;20443;-81
2022/06/04 08:17:25;;;;;;;2.07;1.87;;;25.00;59.90;;;;;;5116566;28;20439;-81
2022/06/04 08:19:52;;;;;;;1.90;1.80;;;25.00;59.90;;;;;;5116731;28;20439;-81
2022/06/04 08:22:19;;;;;;;2.20;1.60;;;25.00;59.80;;;;;;5116548;28;20482;-81
2022/06/04 08:24:48;;;;;;;1.60;1.50;;;25.00;59.80;;;;;;5116378;28;20482;-82
2022/06/04 08:27:15;;;;;;;1.60;1.50;;;25.00;59.80;;;;;;5116302;28;20806;-81
2022/06/04 08:29:44;;;;;;;1.60;1.50;;;25.10;59.80;;;;;;5116236;28;20954;-81
2022/06/04 08:32:11;;;;;;;1.60;1.43;;;25.10;59.80;;;;;;5116102;28;20553;-81
2022/06/04 08:34:38;;;;;;;1.77;1.47;;;25.10;59.70;;;;;;5116278;28;20443;-81
2022/06/04 08:37:06;;;;;;;1.97;1.50;;;25.10;59.70;;;;;;5116164;28;20521;-81
2022/06/04 08:39:33;;;;;;;1.60;1.50;;;25.10;59.70;;;;;;5116029;28;20446;-81
2022/06/04 08:42:14;;;;;;;1.50;1.40;;;25.10;59.70;;;;;;5116213;28;21001;-81
2022/06/04 08:44:45;;;;;;;1.60;1.50;;;25.10;59.70;;;;;;5115953;28;21015;-81
2022/06/04 08:47:16;;;;;;;1.50;1.40;;;25.20;59.80;;;;;;5116248;28;20485;-81
2022/06/04 08:49:47;;;;;;;3.10;2.07;;;25.20;59.80;;;;;;5115822;28;20459;-81
2022/06/04 08:52:18;;;;;;;1.80;1.40;;;25.20;59.80;;;;;;5116104;28;20439;-81
2022/06/04 08:57:38;;;;;;;1.53;1.20;;;25.20;59.80;;;;;;5099784;28;20777;-81
2022/06/04 09:00:12;;;;;;;2.13;1.60;;;25.20;60.50;;;;;;5115944;28;20515;-81
2022/06/04 09:02:58;;;;;;;1.53;1.43;;;25.20;59.80;;;;;;5115241;28;20543;-81
2022/06/04 09:05:32;;;;;;;2.73;1.33;;;25.20;59.80;;;;;;5115930;28;20522;-82
2022/06/04 09:08:05;;;;;;;1.57;1.47;;;25.20;59.80;;;;;;5115524;28;20435;-81
2022/06/04 09:10:38;;;;;;;1.67;1.57;;;25.20;60.40;;;;;;5115710;28;20439;-81
2022/06/04 09:13:13;;;;;;;2.87;1.90;;;25.20;59.70;;;;;;5115462;28;20490;-81
2022/06/04 09:15:46;;;;;;;1.80;1.70;;;25.20;59.70;;;;;;5115401;28;20449;-82
2022/06/04 09:18:17;;;;;;;4.20;2.10;;;25.20;59.70;;;;;;5115432;28;20457;-81
2022/06/04 09:20:46;;;;;;;3.97;2.00;;;25.20;59.70;;;;;;5115515;28;20534;-81
2022/06/04 09:23:19;;;;;;;2.47;1.77;;;25.20;59.80;;;;;;5115239;28;20555;-80
2022/06/04 09:25:52;;;;;;;3.47;2.23;;;25.20;59.70;;;;;;5115129;28;20431;-80
2022/06/04 09:28:33;;;;;;;2.50;2.30;;;25.20;59.80;;;;;;5114823;28;20522;-82
2022/06/04 09:31:13;;;;;;;3.50;2.80;;;25.30;59.90;;;;;;5115090;28;20445;-81
2022/06/04 09:33:52;;;;;;;2.60;2.40;;;25.20;60.10;;;;;;5115205;28;20439;-82
2022/06/04 09:36:23;;;;;;;4.10;2.13;;;25.20;61.20;;;;;;5115037;28;20435;-81
2022/06/04 09:38:56;;;;;;;4.23;2.67;;;25.10;60.40;;;;;;5114866;28;20961;-81
2022/06/04 09:41:25;;;;;;;2.60;2.40;;;25.10;60.30;;;;;;5115086;28;20450;-82
2022/06/04 09:44:08;;;;;;;2.20;2.00;;;25.10;60.40;;;;;;5114659;28;20478;-81
2022/06/04 09:46:37;;;;;;;2.47;1.90;;;25.10;60.20;;;;;;5121124;27;20960;-84
2022/06/04 09:49:18;;;;;;;1.63;1.53;;;25.20;60.30;;;;;;5135374;27;20525;-81
2022/06/04 09:51:45;;;;;;;3.40;1.90;;;25.10;60.30;;;;;;5135333;27;20442;-81
2022/06/04 09:54:24;;;;;;;5.87;2.10;;;25.10;60.20;;;;;;5135219;27;20473;-81
2022/06/04 09:56:55;;;;;;;5.20;2.03;;;25.10;60.20;;;;;;5135329;27;20940;-81
2022/06/04 09:59:24;;;;;;;2.33;1.97;;;25.10;60.30;;;;;;5134965;27;20484;-80
2022/06/04 10:01:58;;;;;;;3.23;2.57;;;25.10;60.30;;;;;;5135115;27;20467;-81
2022/06/04 10:04:38;;;;;;;2.43;2.10;;;25.10;60.30;;;;;;5135113;27;20492;-81
2022/06/04 10:07:07;;;;;;;2.80;1.73;;;25.10;60.30;;;;;;5135036;27;20850;-81
2022/06/04 10:15:21;;;;;;;2.00;1.83;;;25.10;60.40;;;;;;5135097;27;20422;-81
2022/06/04 10:18:00;;;;;;;4.80;2.20;;;25.10;60.50;;;;;;5134905;27;20474;-81
2022/06/04 10:20:27;;;;;;;1.97;1.80;;;25.10;60.50;;;;;;5134840;27;20528;-81
2022/06/04 10:22:54;;;;;;;2.27;2.00;;;25.10;61.50;;;;;;5134881;27;20856;-85
2022/06/04 10:25:24;;;;;;;3.63;1.90;;;25.10;60.50;;;;;;5134386;27;20510;-81
2022/06/04 10:28:00;;;;;;;2.43;2.23;;;25.10;60.60;;;;;;5134618;27;20436;-82
2022/06/04 10:30:31;;;;;;;2.37;2.17;;;25.10;60.60;;;;;;5134640;27;20438;-81
2022/06/04 10:33:14;;;;;;;2.37;2.17;;;25.10;60.60;;;;;;5134487;27;20497;-81
2022/06/04 10:36:01;;;;;;;2.30;2.03;;;25.10;60.60;;;;;;5134605;27;20656;-82
2022/06/04 10:38:40;;;;;;;1.90;1.70;;;25.10;60.50;;;;;;5134365;27;20437;-85
2022/06/04 10:41:14;;;;;;;1.60;1.50;;;25.10;60.50;;;;;;5134409;27;20529;-81
2022/06/04 10:44:07;;;;;;;2.73;2.00;;;25.10;60.50;;;;;;5134478;27;20478;-81
2022/06/04 10:46:43;;;;;;;1.80;1.70;;;25.10;60.50;;;;;;5134494;27;20465;-82
2022/06/04 10:49:23;;;;;;;2.53;1.90;;;25.10;60.40;;;;;;5134289;27;20951;-82
2022/06/04 10:51:57;;;;;;;1.83;1.73;;;25.20;60.40;;;;;;5134261;27;20465;-81
2022/06/04 10:54:33;;;;;;;2.20;2.00;;;25.20;60.50;;;;;;5134456;27;20533;-81
2022/06/04 10:57:13;;;;;;;1.80;1.70;;;25.20;60.60;;;;;;5134238;27;20512;-79
2022/06/04 10:59:45;;;;;;;1.83;1.60;;;25.20;60.50;;;;;;5134062;27;20534;-79
2022/06/04 11:02:18;;;;;;;5.00;1.80;;;25.20;60.70;;;;;;5134156;27;20485;-79
2022/06/04 11:04:50;;;;;;;2.03;1.83;;;25.20;60.60;;;;;;5133955;27;20481;-79
2022/06/04 11:07:34;;;;;;;5.40;1.80;;;25.20;60.70;;;;;;5134302;27;20525;-81
2022/06/04 11:10:05;;;;;;;3.93;1.70;;;25.20;60.60;;;;;;5134226;27;20530;-79
2022/06/04 11:12:38;;;;;;;1.80;1.70;;;25.20;60.70;;;;;;5133873;27;20508;-81
2022/06/04 11:15:12;;;;;;;1.80;1.70;;;25.20;60.80;;;;;;5134091;27;20438;-80
2022/06/04 11:17:45;;;;;;;1.73;1.63;;;25.20;60.70;;;;;;5134274;27;20512;-79
2022/06/04 11:20:18;;;;;;;1.70;1.60;;;25.20;60.70;;;;;;5134116;27;20526;-79
2022/06/04 11:22:53;;;;;;;3.53;1.70;;;25.20;60.50;;;;;;5137978;27;20481;-81
2022/06/04 11:25:27;;;;;;;3.00;2.00;;;25.30;60.40;;;;;;5137985;27;20571;-80
2022/06/04 11:27:57;;;;;;;1.63;1.53;;;25.30;60.40;;;;;;5138163;27;20483;-80
2022/06/04 11:30:37;;;;;;;1.57;1.47;;;25.30;60.50;;;;;;5137003;27;20451;-84
2022/06/04 11:33:23;;;;;;;1.87;1.67;;;25.30;60.70;;;;;;5117662;28;20490;-83
2022/06/04 11:36:01;;;;;;;1.43;1.33;;;25.30;60.80;;;;;;5117160;28;20518;-78
2022/06/04 11:38:40;;;;;;;2.60;2.10;;;25.30;60.50;;;;;;5117135;28;20450;-78
2022/06/04 11:41:19;;;;;;;3.10;2.00;;;25.40;60.60;;;;;;5116860;28;20434;-78
2022/06/04 11:44:03;;;;;;;1.83;1.63;;;25.40;60.60;;;;;;5118124;27;20526;-77
2022/06/04 11:46:42;;;;;;;2.30;1.47;;;25.40;60.50;;;;;;5117027;28;20461;-78
2022/06/04 11:49:28;;;;;;;3.90;1.57;;;25.40;60.50;;;;;;5099906;28;20446;-78
2022/06/04 11:52:16;;;;;;;2.37;1.60;;;25.40;60.30;;;;;;5116738;28;21005;-78
2022/06/04 11:55:12;;;;;;;2.73;1.60;;;25.50;60.40;;;;;;5116691;28;20446;-78
2022/06/04 11:57:51;;;;;;;2.93;2.03;;;25.50;60.40;;;;;;5108612;27;20439;-78
2022/06/04 12:00:24;;;;;;;1.60;1.50;;;25.40;60.30;;;;;;5116643;28;20533;-77
2022/06/04 12:02:59;;;;;;;1.90;1.80;;;25.50;60.40;;;;;;5117013;27;20600;-78
2022/06/04 12:05:39;;;;;;;1.67;1.57;;;25.50;60.40;;;;;;5116742;28;20482;-78
2022/06/04 12:08:10;;;;;;;2.30;2.10;;;25.50;60.30;;;;;;5116655;28;20517;-78
2022/06/04 12:11:04;;;;;;;2.60;1.30;;;25.50;60.40;;;;;;5116730;28;20798;-78
2022/06/04 12:13:36;;;;;;;1.50;1.40;;;25.50;60.30;;;;;;5113601;28;20562;-77
2022/06/04 12:16:07;;;;;;;2.10;1.90;;;25.50;60.40;;;;;;5116451;28;20470;-78
2022/06/04 12:18:38;;;;;;;11.40;1.80;;;25.50;60.40;;;;;;5135153;27;20510;-80
2022/06/04 12:24:18;;;;;;;2.17;1.40;;;25.50;60.50;;;;;;5136889;27;20465;-80
2022/06/04 12:26:47;;;;;;;1.83;1.73;;;25.50;60.60;;;;;;5118392;27;20439;-80
2022/06/04 12:29:33;;;;;;;1.83;1.57;;;25.50;60.60;;;;;;5116412;28;20447;-80
2022/06/04 12:32:02;;;;;;;3.63;1.90;;;25.50;60.50;;;;;;5115109;28;20459;-80
2022/06/04 12:34:34;;;;;;;1.50;1.40;;;25.60;60.60;;;;;;5117187;27;20531;-80
2022/06/04 12:37:01;;;;;;;1.20;1.10;;;25.60;60.60;;;;;;5116111;28;20485;-81
2022/06/04 12:39:31;;;;;;;1.77;1.37;;;25.60;61.40;;;;;;5116188;28;20474;-80
2022/06/04 12:42:01;;;;;;;1.63;1.53;;;25.60;60.50;;;;;;5115878;28;20443;-79
2022/06/04 12:44:31;;;;;;;2.07;1.73;;;25.60;60.40;;;;;;5115786;28;20546;-80
2022/06/04 12:47:14;;;;;;;1.60;1.50;;;25.60;60.50;;;;;;5118782;27;20474;-87
2022/06/04 12:49:52;;;;;;;4.33;1.80;;;25.60;60.50;;;;;;5136565;27;20976;-84
2022/06/04 12:52:33;;;;;;;2.37;1.87;;;25.60;60.60;;;;;;5129673;27;20953;-82
2022/06/04 12:55:09;;;;;;;1.20;1.10;;;25.70;60.60;;;;;;5115944;28;20511;-82
2022/06/04 12:57:52;;;;;;;84.00;26.10;;;25.60;60.60;;;;;;5129119;27;20444;-82
2022/06/04 13:00:29;;;;;;;490.53;140.23;;;25.60;60.70;;;;;;5136418;27;20435;-82
2022/06/04 13:03:13;;;;;;;247.83;76.20;;;25.70;61.20;;;;;;5136340;27;20514;-82
2022/06/04 13:05:58;;;;;;;314.37;84.90;;;25.70;61.40;;;;;;5131822;27;20572;-82
2022/06/04 13:08:33;;;;;;;346.60;90.70;;;25.70;61.60;;;;;;5136122;27;20533;-83
2022/06/04 13:11:12;;;;;;;321.50;90.97;;;25.70;61.80;;;;;;5136584;27;20521;-82
2022/06/04 13:13:46;;;;;;;298.50;89.07;;;25.70;61.90;;;;;;5136093;27;20509;-83
2022/06/04 13:16:19;;;;;;;274.60;87.70;;;25.60;61.90;;;;;;5136134;27;20514;-80
2022/06/04 13:18:57;;;;;;;315.20;83.17;;;25.60;61.90;;;;;;5136002;27;20434;-84
2022/06/04 13:21:24;;;;;;;353.10;89.17;;;25.60;61.80;;;;;;5135840;27;20462;-81
2022/06/04 13:23:59;;;;;;;292.30;88.00;;;25.70;61.70;;;;;;5119127;27;20478;-80
2022/06/04 13:26:36;;;;;;;298.73;83.20;;;25.70;61.60;;;;;;5126979;27;20526;-80
2022/06/04 13:29:21;;;;;;;291.20;81.47;;;25.70;61.50;;;;;;5135567;27;20528;-80